createdAt,value
2022-12-11T09:07:04.107Z,25.30
2022-12-11T09:09:32.882Z,24.80
2022-12-11T09:12:01.906Z,28.00
2022-12-11T09:14:31.356Z,26.30
2022-12-11T09:17:00.590Z,27.30
2022-12-11T09:19:32.383Z,24.80
2022-12-11T09:22:02.109Z,25.80
2022-12-11T09:24:34.541Z,24.00
2022-12-11T09:27:05.382Z,28.80
2022-12-11T09:29:34.361Z,24.30
2022-12-11T09:32:03.952Z,24.30
2022-12-11T09:34:33.063Z,25.40
2022-12-11T09:37:02.703Z,23.40
2022-12-11T09:39:31.462Z,23.00
2022-12-11T09:42:04.990Z,19.80
2022-12-11T09:44:48.688Z,24.00
2022-12-11T09:47:46.261Z,23.50
2022-12-11T09:50:21.662Z,23.30
2022-12-11T09:53:22.801Z,20.50
2022-12-11T09:56:30.005Z,19.20
2022-12-11T09:59:30.683Z,18.80
2022-12-11T10:02:35.608Z,20.60
2022-12-11T10:05:13.707Z,20.60
2022-12-11T10:07:52.610Z,18.30
2022-12-11T10:10:55.301Z,19.10
2022-12-11T10:13:56.122Z,21.40
2022-12-11T10:17:11.792Z,23.70
2022-12-11T10:19:43.541Z,22.00
2022-12-11T10:22:30.334Z,18.10
2022-12-11T10:25:17.975Z,21.50
2022-12-11T10:27:46.937Z,18.00
2022-12-11T10:30:22.755Z,20.90
2022-12-11T10:33:22.526Z,23.00
2022-12-11T10:35:56.132Z,22.30
2022-12-11T10:38:42.840Z,20.90
2022-12-11T10:41:29.052Z,20.40
2022-12-11T10:43:57.870Z,17.60
2022-12-11T10:46:32.609Z,19.40
2022-12-11T10:49:02.340Z,19.10
2022-12-11T10:51:31.035Z,21.40
2022-12-11T10:54:29.511Z,21.80
2022-12-11T10:57:00.810Z,17.30
2022-12-11T10:59:41.356Z,17.20
2022-12-11T11:02:31.212Z,19.60
2022-12-11T11:05:20.155Z,14.80
2022-12-11T11:07:49.003Z,13.60
2022-12-11T11:10:18.837Z,18.00
2022-12-11T11:12:50.818Z,19.40
2022-12-11T11:15:27.094Z,14.20
2022-12-11T11:18:02.116Z,16.00
2022-12-11T11:20:34.534Z,13.90
2022-12-11T11:23:14.317Z,13.00
2022-12-11T11:25:52.963Z,18.90
2022-12-11T11:28:31.084Z,17.90
2022-12-11T11:31:14.881Z,21.00
2022-12-11T11:34:06.166Z,33.60
2022-12-11T11:36:38.344Z,31.40
2022-12-11T11:39:39.018Z,25.30
2022-12-11T11:42:30.239Z,18.00
2022-12-11T11:45:11.305Z,17.50
2022-12-11T11:47:57.319Z,20.10
2022-12-11T11:50:34.690Z,20.60
2022-12-11T11:53:12.018Z,22.80
2022-12-11T11:56:12.909Z,21.70
2022-12-11T11:59:01.309Z,54.50
2022-12-11T12:01:31.148Z,38.10
2022-12-11T12:04:03.306Z,21.60
2022-12-11T12:06:52.868Z,22.60
2022-12-11T12:10:03.598Z,22.90
2022-12-11T12:13:02.285Z,24.00
2022-12-11T12:15:58.957Z,23.50
2022-12-11T12:19:08.689Z,22.00
2022-12-11T12:21:40.114Z,22.10
2022-12-11T12:24:48.992Z,19.80
2022-12-11T12:27:59.395Z,14.30
2022-12-11T12:30:56.963Z,21.20
2022-12-11T12:33:44.192Z,19.30
2022-12-11T12:36:20.001Z,24.50
2022-12-11T12:38:59.567Z,19.20
2022-12-11T12:42:08.560Z,19.30
2022-12-11T12:45:10.632Z,20.70
2022-12-11T12:47:42.405Z,19.70
2022-12-11T12:50:17.415Z,16.70
2022-12-11T12:52:47.963Z,14.40
2022-12-11T12:55:29.919Z,17.90
2022-12-11T12:58:24.769Z,15.40
2022-12-11T13:00:54.575Z,16.70
2022-12-11T13:03:33.079Z,17.70
2022-12-11T13:06:08.023Z,18.00
2022-12-11T13:08:52.136Z,21.10
2022-12-11T13:11:37.099Z,19.60
2022-12-11T13:14:15.740Z,22.00
2022-12-11T13:16:51.646Z,17.40
2022-12-11T13:19:23.356Z,19.10
2022-12-11T13:22:00.997Z,20.40
2022-12-11T13:24:33.826Z,23.60
2022-12-11T13:27:25.037Z,23.60
2022-12-11T13:30:24.364Z,27.40
2022-12-11T13:33:19.432Z,24.10
2022-12-11T13:35:48.427Z,22.70
2022-12-11T13:38:21.224Z,23.90
2022-12-11T13:40:56.443Z,22.80
2022-12-11T13:43:31.128Z,22.50
2022-12-11T13:46:07.322Z,23.60
2022-12-11T13:48:46.320Z,23.00
2022-12-11T13:51:26.554Z,24.80
2022-12-11T13:54:18.816Z,23.80
2022-12-11T13:57:31.233Z,20.80
2022-12-11T14:00:00.125Z,22.70
2022-12-11T14:02:36.174Z,19.50
2022-12-11T14:05:13.026Z,21.80
2022-12-11T14:07:49.451Z,22.00
2022-12-11T14:10:28.869Z,17.60
2022-12-11T14:13:02.987Z,15.20
2022-12-11T14:15:35.664Z,19.10
2022-12-11T14:18:06.363Z,16.10
2022-12-11T14:20:35.530Z,19.30
2022-12-11T14:23:27.288Z,18.20
2022-12-11T14:26:19.366Z,17.10
2022-12-11T14:28:48.748Z,19.50
2022-12-11T14:31:24.251Z,24.80
2022-12-11T14:34:03.186Z,18.70
2022-12-11T14:36:35.707Z,18.10
2022-12-11T14:39:41.944Z,16.00
2022-12-11T14:42:18.929Z,20.40
2022-12-11T14:45:03.744Z,16.30
2022-12-11T14:47:41.606Z,18.90
2022-12-11T14:50:26.952Z,19.50
2022-12-11T14:53:02.655Z,19.40
2022-12-11T14:55:36.446Z,19.10
2022-12-11T14:58:30.302Z,20.40
2022-12-11T15:01:04.829Z,21.70
2022-12-11T15:03:39.966Z,22.40
2022-12-11T15:06:35.987Z,18.90
2022-12-11T15:09:42.846Z,19.10
2022-12-11T15:12:19.773Z,22.30
2022-12-11T15:15:15.545Z,20.60
2022-12-11T15:17:49.677Z,21.30
2022-12-11T15:20:31.927Z,19.00
2022-12-11T15:23:02.591Z,35.50
2022-12-11T15:25:31.526Z,48.70
2022-12-11T15:28:02.173Z,33.00
2022-12-11T15:30:35.279Z,66.90
2022-12-11T15:33:09.992Z,31.10
2022-12-11T15:35:51.630Z,28.70
2022-12-11T15:38:42.493Z,16.90
2022-12-11T15:41:17.890Z,25.20
2022-12-11T15:43:47.726Z,17.70
2022-12-11T15:46:16.524Z,16.90
2022-12-11T15:48:45.126Z,15.60
2022-12-11T15:51:13.948Z,16.20
2022-12-11T15:53:42.627Z,23.00
2022-12-11T15:56:17.035Z,16.50
2022-12-11T15:58:49.046Z,15.30
2022-12-11T16:01:18.116Z,12.20
2022-12-11T16:03:46.947Z,13.00
2022-12-11T16:06:15.727Z,14.40
2022-12-11T16:08:44.528Z,18.10
2022-12-11T16:11:14.627Z,15.70
2022-12-11T16:13:43.388Z,16.60
2022-12-11T16:16:12.268Z,15.20
2022-12-11T16:18:41.027Z,19.60
2022-12-11T16:21:09.826Z,18.60
2022-12-11T16:23:38.608Z,16.10
2022-12-11T16:26:10.048Z,15.20
2022-12-11T16:28:38.841Z,13.70
2022-12-11T16:31:13.321Z,10.20
2022-12-11T16:33:42.486Z,14.30
2022-12-11T16:36:19.831Z,10.50
2022-12-11T16:38:53.909Z,11.70
2022-12-11T16:41:23.933Z,13.30
2022-12-11T16:43:54.348Z,12.70
2022-12-11T16:46:24.596Z,14.50
2022-12-11T16:48:53.273Z,15.50
2022-12-11T16:51:22.307Z,15.10
2022-12-11T16:53:51.006Z,13.20
2022-12-11T16:56:19.888Z,15.10
2022-12-11T16:58:48.847Z,14.10
2022-12-11T17:01:17.668Z,17.50
2022-12-11T17:03:46.465Z,13.00
2022-12-11T17:06:18.058Z,14.00
2022-12-11T17:08:47.920Z,14.40
2022-12-11T17:11:20.418Z,15.20
2022-12-11T17:13:55.494Z,13.60
2022-12-11T17:16:26.815Z,15.20
2022-12-11T17:18:57.735Z,16.10
2022-12-11T17:21:26.677Z,14.30
2022-12-11T17:23:55.457Z,15.30
2022-12-11T17:26:25.555Z,15.30
2022-12-11T17:28:54.436Z,14.90
2022-12-11T17:31:23.513Z,15.60
2022-12-11T17:33:54.368Z,17.80
2022-12-11T17:36:23.420Z,16.30
2022-12-11T17:38:55.463Z,14.60
2022-12-11T17:41:24.832Z,15.90
2022-12-11T17:43:54.589Z,17.30
2022-12-11T17:46:23.958Z,13.80
2022-12-11T17:48:52.831Z,17.30
2022-12-11T17:51:24.728Z,15.40
2022-12-11T17:53:56.332Z,15.60
2022-12-11T17:56:26.338Z,16.10
2022-12-11T17:58:54.989Z,16.00
2022-12-11T18:01:23.801Z,19.70
2022-12-11T18:03:52.850Z,15.40
2022-12-11T18:06:23.371Z,16.00
2022-12-11T18:08:52.114Z,15.50
2022-12-11T18:11:24.352Z,18.60
2022-12-11T18:13:54.177Z,20.00
2022-12-11T18:16:30.637Z,17.80
2022-12-11T18:18:59.611Z,16.90
2022-12-11T18:21:33.316Z,18.30
2022-12-11T18:24:03.091Z,18.20
2022-12-11T18:26:31.825Z,15.70
2022-12-11T18:29:00.653Z,16.60
2022-12-11T18:31:29.342Z,18.00
2022-12-11T18:33:58.436Z,20.30
2022-12-11T18:36:27.821Z,18.60
2022-12-11T18:38:56.596Z,22.30
2022-12-11T18:41:25.671Z,17.60
2022-12-11T18:43:54.996Z,19.10
2022-12-11T18:46:23.940Z,16.00
2022-12-11T18:48:52.813Z,25.10
2022-12-11T18:51:24.310Z,18.40
2022-12-11T18:53:54.417Z,18.20
2022-12-11T18:56:23.931Z,15.40
2022-12-11T18:58:52.838Z,18.50
2022-12-11T19:01:26.111Z,20.30
2022-12-11T19:04:03.516Z,23.10
2022-12-11T19:06:35.904Z,17.50
2022-12-11T19:09:09.313Z,16.70
2022-12-11T19:11:43.853Z,19.00
2022-12-11T19:14:12.813Z,20.50
2022-12-11T19:16:47.434Z,20.60
2022-12-11T19:19:22.377Z,19.50
2022-12-11T19:21:51.073Z,19.10
2022-12-11T19:24:23.931Z,20.80
2022-12-11T19:26:52.974Z,18.10
2022-12-11T19:29:26.912Z,19.90
2022-12-11T19:31:57.030Z,20.60
2022-12-11T19:34:26.545Z,20.50
2022-12-11T19:36:55.455Z,21.50
2022-12-11T19:39:24.431Z,20.00
2022-12-11T19:41:53.335Z,20.50
2022-12-11T19:44:22.342Z,16.50
2022-12-11T19:46:51.078Z,18.00
2022-12-11T19:49:19.775Z,19.90
2022-12-11T19:51:48.464Z,20.70
2022-12-11T19:54:18.354Z,24.00
2022-12-11T19:56:47.141Z,24.70
2022-12-11T19:59:18.632Z,22.90
2022-12-11T20:01:50.675Z,22.90
2022-12-11T20:04:20.394Z,20.40
2022-12-11T20:06:49.213Z,19.00
2022-12-11T20:09:18.496Z,19.60
2022-12-11T20:11:48.192Z,24.60
2022-12-11T20:14:27.615Z,26.60
2022-12-11T20:17:13.924Z,21.90
2022-12-11T20:19:43.532Z,19.30
2022-12-11T20:22:12.599Z,21.70
2022-12-11T20:24:41.695Z,19.60
2022-12-11T20:27:10.672Z,19.50
2022-12-11T20:29:39.560Z,22.20
2022-12-11T20:32:08.318Z,20.10
2022-12-11T20:34:38.113Z,18.10
2022-12-11T20:37:08.178Z,22.50
2022-12-11T20:39:37.616Z,20.90
2022-12-11T20:42:06.351Z,19.20
2022-12-11T20:44:35.274Z,20.20
2022-12-11T20:47:04.205Z,22.20
2022-12-11T20:49:33.377Z,21.00
2022-12-11T20:52:02.199Z,18.90
2022-12-11T20:54:31.171Z,22.50
2022-12-11T20:57:00.159Z,16.60
2022-12-11T20:59:29.120Z,21.50
2022-12-11T21:01:58.303Z,23.60
2022-12-11T21:04:27.772Z,20.00
2022-12-11T21:07:03.894Z,17.90
2022-12-11T21:09:32.571Z,22.40
2022-12-11T21:12:01.997Z,21.40
2022-12-11T21:14:31.611Z,22.60
2022-12-11T21:17:00.698Z,20.00
2022-12-11T21:19:29.434Z,21.50
2022-12-11T21:21:58.651Z,20.60
2022-12-11T21:24:30.414Z,15.40
2022-12-11T21:26:59.432Z,21.10
2022-12-11T21:29:29.772Z,20.50
2022-12-11T21:31:58.809Z,17.50
2022-12-11T21:34:28.093Z,19.90
2022-12-11T21:36:57.409Z,20.70
2022-12-11T21:39:28.853Z,18.50
2022-12-11T21:41:58.552Z,21.60
2022-12-11T21:47:17.074Z,20.70
2022-12-11T21:49:45.952Z,19.00
2022-12-11T21:52:15.184Z,21.90
2022-12-11T21:54:45.671Z,21.60
2022-12-11T21:57:14.332Z,19.60
2022-12-11T21:59:43.053Z,20.20
2022-12-11T22:02:12.487Z,21.00
2022-12-11T22:04:42.343Z,22.80
2022-12-11T22:07:11.074Z,25.20
2022-12-11T22:09:39.844Z,27.80
2022-12-11T22:12:15.253Z,27.00
2022-12-11T22:14:44.051Z,21.30
2022-12-11T22:17:12.711Z,23.60
2022-12-11T22:19:41.392Z,19.50
2022-12-11T22:22:10.572Z,22.90
2022-12-11T22:24:40.071Z,21.40
2022-12-11T22:27:08.891Z,19.70
2022-12-11T22:29:37.633Z,25.30
2022-12-11T22:32:06.490Z,22.80
2022-12-11T22:34:35.472Z,20.20
2022-12-11T22:37:04.237Z,32.20
2022-12-11T22:39:32.874Z,29.50
2022-12-11T22:42:01.531Z,34.60
2022-12-11T22:44:30.196Z,30.60
2022-12-11T22:46:58.811Z,29.80
2022-12-11T22:49:27.394Z,33.00
2022-12-11T22:51:57.631Z,32.00
2022-12-11T22:54:26.680Z,31.00
2022-12-11T22:56:55.451Z,30.40
